sensor_id;sensor_type;location;lat;lon;timestamp;pressure;altitude;pressure_sealevel;temperature;humidity
50852;BME280;43953;45.508;-122.806;2023-04-19T00:00:27;100689.97;;;13.82;47.01
50852;BME280;43953;45.508;-122.806;2023-04-19T00:00:59;100692.66;;;13.82;47.17
50852;BME280;43953;45.508;-122.806;2023-04-19T00:01:31;100693.13;;;13.79;47.38
50852;BME280;43953;45.508;-122.806;2023-04-19T00:02:04;100698.53;;;13.79;47.69
50852;BME280;43953;45.508;-122.806;2023-04-19T00:02:36;100703.34;;;13.77;47.42
50852;BME280;43953;45.508;-122.806;2023-04-19T00:03:09;100688.19;;;13.76;47.23
50852;BME280;43953;45.508;-122.806;2023-04-19T00:03:41;100687.56;;;13.74;47.64
50852;BME280;43953;45.508;-122.806;2023-04-19T00:04:12;100696.16;;;13.71;47.87
50852;BME280;43953;45.508;-122.806;2023-04-19T00:04:45;100689.94;;;13.70;47.72
50852;BME280;43953;45.508;-122.806;2023-04-19T00:05:17;100690.75;;;13.71;47.66
50852;BME280;43953;45.508;-122.806;2023-04-19T00:05:50;100690.75;;;13.71;47.64
50852;BME280;43953;45.508;-122.806;2023-04-19T00:06:24;100689.94;;;13.70;47.64
50852;BME280;43953;45.508;-122.806;2023-04-19T00:07:00;100692.63;;;13.70;47.46
50852;BME280;43953;45.508;-122.806;2023-04-19T00:07:33;100697.03;;;13.53;46.35
50852;BME280;43953;45.508;-122.806;2023-04-19T00:08:05;100699.84;;;13.46;46.84
50852;BME280;43953;45.508;-122.806;2023-04-19T00:08:37;100701.94;;;13.44;47.04
50852;BME280;43953;45.508;-122.806;2023-04-19T00:09:09;100699.69;;;13.41;47.36
50852;BME280;43953;45.508;-122.806;2023-04-19T00:09:41;100698.50;;;13.37;47.51
50852;BME280;43953;45.508;-122.806;2023-04-19T00:10:12;100703.50;;;13.33;47.14
50852;BME280;43953;45.508;-122.806;2023-04-19T00:10:44;100706.31;;;13.27;47.32
50852;BME280;43953;45.508;-122.806;2023-04-19T00:11:16;100705.09;;;13.23;47.50
50852;BME280;43953;45.508;-122.806;2023-04-19T00:11:48;100703.41;;;13.21;47.81
50852;BME280;43953;45.508;-122.806;2023-04-19T00:12:19;100710.50;;;13.23;48.29
50852;BME280;43953;45.508;-122.806;2023-04-19T00:12:51;100707.78;;;13.23;48.02
50852;BME280;43953;45.508;-122.806;2023-04-19T00:13:23;100706.94;;;13.22;48.27
50852;BME280;43953;45.508;-122.806;2023-04-19T00:13:55;100715.28;;;13.20;48.33
50852;BME280;43953;45.508;-122.806;2023-04-19T00:14:26;100712.22;;;13.17;48.29
50852;BME280;43953;45.508;-122.806;2023-04-19T00:14:58;100708.91;;;13.15;48.52
50852;BME280;43953;45.508;-122.806;2023-04-19T00:15:30;100713.94;;;13.11;48.93
50852;BME280;43953;45.508;-122.806;2023-04-19T00:16:02;100716.03;;;13.09;49.41
50852;BME280;43953;45.508;-122.806;2023-04-19T00:16:34;100722.34;;;13.03;49.62
50852;BME280;43953;45.508;-122.806;2023-04-19T00:17:05;100732.41;;;12.96;49.70
50852;BME280;43953;45.508;-122.806;2023-04-19T00:17:37;100725.41;;;12.88;50.53
50852;BME280;43953;45.508;-122.806;2023-04-19T00:18:09;100730.13;;;12.74;50.37
50852;BME280;43953;45.508;-122.806;2023-04-19T00:18:41;100725.16;;;12.71;50.88
50852;BME280;43953;45.508;-122.806;2023-04-19T00:19:13;100726.84;;;12.72;51.29
50852;BME280;43953;45.508;-122.806;2023-04-19T00:19:44;100740.09;;;12.74;51.60
50852;BME280;43953;45.508;-122.806;2023-04-19T00:20:16;100735.75;;;12.73;52.05
50852;BME280;43953;45.508;-122.806;2023-04-19T00:20:48;100732.25;;;12.72;52.08
50852;BME280;43953;45.508;-122.806;2023-04-19T00:21:20;100732.25;;;12.72;52.29
50852;BME280;43953;45.508;-122.806;2023-04-19T00:21:51;100738.66;;;12.71;52.36
50852;BME280;43953;45.508;-122.806;2023-04-19T00:22:23;100730.13;;;12.74;52.79
50852;BME280;43953;45.508;-122.806;2023-04-19T00:22:55;100739.06;;;12.75;52.69
50852;BME280;43953;45.508;-122.806;2023-04-19T00:23:28;100739.06;;;12.75;52.76
50852;BME280;43953;45.508;-122.806;2023-04-19T00:24:01;100723.91;;;12.74;53.14
50852;BME280;43953;45.508;-122.806;2023-04-19T00:24:33;100731.19;;;12.73;53.02
50852;BME280;43953;45.508;-122.806;2023-04-19T00:25:05;100735.97;;;12.71;53.62
50852;BME280;43953;45.508;-122.806;2023-04-19T00:25:37;100728.94;;;12.70;54.02
50852;BME280;43953;45.508;-122.806;2023-04-19T00:26:09;100729.38;;;12.67;53.91
50852;BME280;43953;45.508;-122.806;2023-04-19T00:26:41;100726.88;;;12.66;53.84
50852;BME280;43953;45.508;-122.806;2023-04-19T00:27:13;100736.03;;;12.65;54.19
50852;BME280;43953;45.508;-122.806;2023-04-19T00:27:45;100738.53;;;12.66;54.11
50852;BME280;43953;45.508;-122.806;2023-04-19T00:28:16;100734.97;;;12.66;54.41
50852;BME280;43953;45.508;-122.806;2023-04-19T00:28:48;100732.69;;;12.69;54.62
50852;BME280;43953;45.508;-122.806;2023-04-19T00:29:20;100732.25;;;12.72;54.65
50852;BME280;43953;45.508;-122.806;2023-04-19T00:29:52;100737.63;;;12.72;54.69
50852;BME280;43953;45.508;-122.806;2023-04-19T00:30:26;100734.94;;;12.72;54.66
50852;BME280;43953;45.508;-122.806;2023-04-19T00:30:58;100732.25;;;12.72;54.57
50852;BME280;43953;45.508;-122.806;2023-04-19T00:31:30;100735.75;;;12.73;54.59
50852;BME280;43953;45.508;-122.806;2023-04-19T00:32:01;100724.72;;;12.74;54.58
50852;BME280;43953;45.508;-122.806;2023-04-19T00:32:36;100728.47;;;12.73;54.91
50852;BME280;43953;45.508;-122.806;2023-04-19T00:33:07;100724.34;;;12.71;55.24
50852;BME280;43953;45.508;-122.806;2023-04-19T00:33:43;100733.72;;;12.68;55.37
50852;BME280;43953;45.508;-122.806;2023-04-19T00:34:14;100732.69;;;12.69;55.50
50852;BME280;43953;45.508;-122.806;2023-04-19T00:34:46;100726.66;;;12.67;55.19
50852;BME280;43953;45.508;-122.806;2023-04-19T00:35:18;100728.75;;;12.65;55.73
50852;BME280;43953;45.508;-122.806;2023-04-19T00:35:50;100724.41;;;12.64;55.72
50852;BME280;43953;45.508;-122.806;2023-04-19T00:36:22;100730.25;;;12.61;56.21
50852;BME280;43953;45.508;-122.806;2023-04-19T00:36:54;100726.19;;;12.52;56.04
50852;BME280;43953;45.508;-122.806;2023-04-19T00:37:26;100731.22;;;12.48;56.16
50852;BME280;43953;45.508;-122.806;2023-04-19T00:37:58;100723.16;;;12.42;56.50
50852;BME280;43953;45.508;-122.806;2023-04-19T00:38:30;100737.09;;;12.39;56.91
50852;BME280;43953;45.508;-122.806;2023-04-19T00:39:01;100730.50;;;12.35;56.98
50852;BME280;43953;45.508;-122.806;2023-04-19T00:39:34;100731.75;;;12.32;56.98
50852;BME280;43953;45.508;-122.806;2023-04-19T00:40:06;100736.34;;;12.32;57.05
50852;BME280;43953;45.508;-122.806;2023-04-19T00:40:38;100733.63;;;12.32;57.08
50852;BME280;43953;45.508;-122.806;2023-04-19T00:41:10;100737.16;;;12.32;57.09
50852;BME280;43953;45.508;-122.806;2023-04-19T00:41:42;100737.38;;;12.31;57.28
50852;BME280;43953;45.508;-122.806;2023-04-19T00:42:14;100732.56;;;12.33;57.29
50852;BME280;43953;45.508;-122.806;2023-04-19T00:42:45;100735.06;;;12.34;56.98
50852;BME280;43953;45.508;-122.806;2023-04-19T00:43:18;100730.50;;;12.35;57.26
50852;BME280;43953;45.508;-122.806;2023-04-19T00:43:50;100726.72;;;12.36;57.19
50852;BME280;43953;45.508;-122.806;2023-04-19T00:44:22;100740.22;;;12.36;57.09
50852;BME280;43953;45.508;-122.806;2023-04-19T00:44:54;100727.56;;;12.36;57.20
50852;BME280;43953;45.508;-122.806;2023-04-19T00:45:26;100728.41;;;12.37;57.31
50852;BME280;43953;45.508;-122.806;2023-04-19T00:45:58;100732.75;;;12.38;57.37
50852;BME280;43953;45.508;-122.806;2023-04-19T00:46:29;100722.56;;;12.40;57.50
50852;BME280;43953;45.508;-122.806;2023-04-19T00:47:01;100721.50;;;12.41;57.24
50852;BME280;43953;45.508;-122.806;2023-04-19T00:47:34;100725.84;;;12.42;57.06
50852;BME280;43953;45.508;-122.806;2023-04-19T00:48:06;100726.69;;;12.42;57.21
50852;BME280;43953;45.508;-122.806;2023-04-19T00:48:38;100725.84;;;12.42;57.07
50852;BME280;43953;45.508;-122.806;2023-04-19T00:49:10;100729.59;;;12.41;56.63
50852;BME280;43953;45.508;-122.806;2023-04-19T00:49:42;100716.31;;;12.39;56.78
50852;BME280;43953;45.508;-122.806;2023-04-19T00:50:14;100723.44;;;12.34;56.96
50852;BME280;43953;45.508;-122.806;2023-04-19T00:50:46;100731.75;;;12.32;57.24
50852;BME280;43953;45.508;-122.806;2023-04-19T00:51:18;100732.19;;;12.29;57.08
50852;BME280;43953;45.508;-122.806;2023-04-19T00:51:50;100731.81;;;12.25;57.06
50852;BME280;43953;45.508;-122.806;2023-04-19T00:52:22;100725.78;;;12.23;57.46
50852;BME280;43953;45.508;-122.806;2023-04-19T00:52:54;100737.66;;;12.22;57.59
50852;BME280;43953;45.508;-122.806;2023-04-19T00:53:26;100725.47;;;12.13;57.02
50852;BME280;43953;45.508;-122.806;2023-04-19T00:53:58;100731.31;;;12.10;57.33
50852;BME280;43953;45.508;-122.806;2023-04-19T00:54:31;100736.09;;;12.08;57.29
50852;BME280;43953;45.508;-122.806;2023-04-19T00:55:04;100735.03;;;12.09;57.78
50852;BME280;43953;45.508;-122.806;2023-04-19T00:55:38;100734.88;;;12.04;58.39
50852;BME280;43953;45.508;-122.806;2023-04-19T00:56:10;100725.78;;;11.98;57.97
50852;BME280;43953;45.508;-122.806;2023-04-19T00:56:43;100728.69;;;11.97;58.15
50852;BME280;43953;45.508;-122.806;2023-04-19T00:57:15;100730.56;;;11.96;58.04
50852;BME280;43953;45.508;-122.806;2023-04-19T00:57:47;100735.97;;;11.96;57.98
50852;BME280;43953;45.508;-122.806;2023-04-19T00:58:22;100727.91;;;11.90;58.09
50852;BME280;43953;45.508;-122.806;2023-04-19T00:58:55;100723.78;;;11.87;57.66
50852;BME280;43953;45.508;-122.806;2023-04-19T00:59:27;100721.28;;;11.86;58.05
50852;BME280;43953;45.508;-122.806;2023-04-19T00:59:59;100722.94;;;11.87;58.56
50852;BME280;43953;45.508;-122.806;2023-04-19T01:00:31;100725.41;;;11.88;58.55
50852;BME280;43953;45.508;-122.806;2023-04-19T01:01:03;100724.16;;;11.91;58.41
50852;BME280;43953;45.508;-122.806;2023-04-19T01:01:37;100723.72;;;11.94;58.29
50852;BME280;43953;45.508;-122.806;2023-04-19T01:02:09;100732.19;;;11.97;58.73
50852;BME280;43953;45.508;-122.806;2023-04-19T01:02:41;100724.53;;;12.01;58.12
50852;BME280;43953;45.508;-122.806;2023-04-19T01:03:12;100725.13;;;12.03;58.22
50852;BME280;43953;45.508;-122.806;2023-04-19T01:03:45;100728.44;;;12.05;57.99
50852;BME280;43953;45.508;-122.806;2023-04-19T01:04:17;100718.25;;;12.07;58.36
50852;BME280;43953;45.508;-122.806;2023-04-19T01:04:49;100721.78;;;12.07;58.41
50852;BME280;43953;45.508;-122.806;2023-04-19T01:05:21;100724.47;;;12.07;58.59
50852;BME280;43953;45.508;-122.806;2023-04-19T01:05:54;100717.28;;;11.95;57.74
50852;BME280;43953;45.508;-122.806;2023-04-19T01:06:27;100718.16;;;11.89;57.75
50852;BME280;43953;45.508;-122.806;2023-04-19T01:07:01;100719.19;;;11.88;57.99
50852;BME280;43953;45.508;-122.806;2023-04-19T01:07:33;100720.84;;;11.89;58.11
50852;BME280;43953;45.508;-122.806;2023-04-19T01:08:05;100718.16;;;11.89;58.76
50852;BME280;43953;45.508;-122.806;2023-04-19T01:08:38;100719.59;;;11.91;58.83
50852;BME280;43953;45.508;-122.806;2023-04-19T01:09:10;100718.84;;;11.77;57.90
50852;BME280;43953;45.508;-122.806;2023-04-19T01:09:45;100728.19;;;11.68;57.62
50852;BME280;43953;45.508;-122.806;2023-04-19T01:10:17;100719.75;;;11.58;58.04
50852;BME280;43953;45.508;-122.806;2023-04-19T01:10:49;100716.00;;;11.59;58.73
50852;BME280;43953;45.508;-122.806;2023-04-19T01:11:22;100721.63;;;11.57;58.22
50852;BME280;43953;45.508;-122.806;2023-04-19T01:11:54;100719.31;;;11.61;58.18
50852;BME280;43953;45.508;-122.806;2023-04-19T01:12:26;100716.19;;;11.64;58.37
50852;BME280;43953;45.508;-122.806;2023-04-19T01:12:58;100721.16;;;11.67;58.25
50852;BME280;43953;45.508;-122.806;2023-04-19T01:13:30;100717.59;;;11.73;58.14
50852;BME280;43953;45.508;-122.806;2023-04-19T01:14:01;100709.44;;;11.80;58.47
50852;BME280;43953;45.508;-122.806;2023-04-19T01:14:33;100712.56;;;11.83;58.18
50852;BME280;43953;45.508;-122.806;2023-04-19T01:15:05;100703.00;;;11.88;58.54
50852;BME280;43953;45.508;-122.806;2023-04-19T01:15:37;100713.16;;;11.92;58.27
50852;BME280;43953;45.508;-122.806;2023-04-19T01:16:09;100712.94;;;11.94;57.91
50852;BME280;43953;45.508;-122.806;2023-04-19T01:16:41;100704.63;;;11.95;58.09
50852;BME280;43953;45.508;-122.806;2023-04-19T01:17:13;100708.75;;;11.98;58.06
50852;BME280;43953;45.508;-122.806;2023-04-19T01:17:45;100714.56;;;12.01;58.16
50852;BME280;43953;45.508;-122.806;2023-04-19T01:18:16;100714.13;;;12.04;58.16
50852;BME280;43953;45.508;-122.806;2023-04-19T01:18:49;100710.34;;;12.05;58.10
50852;BME280;43953;45.508;-122.806;2023-04-19T01:19:21;100708.28;;;12.07;58.01
50852;BME280;43953;45.508;-122.806;2023-04-19T01:20:04;100709.09;;;12.08;57.58
50852;BME280;43953;45.508;-122.806;2023-04-19T01:20:39;100707.84;;;12.11;57.21
50852;BME280;43953;45.508;-122.806;2023-04-19T01:21:11;100706.41;;;12.08;56.74
50852;BME280;43953;45.508;-122.806;2023-04-19T01:21:43;100705.78;;;12.06;56.32
50852;BME280;43953;45.508;-122.806;2023-04-19T01:22:18;100709.53;;;12.05;56.24
50852;BME280;43953;45.508;-122.806;2023-04-19T01:22:49;100700.81;;;12.03;56.34
50852;BME280;43953;45.508;-122.806;2023-04-19T01:23:21;100710.19;;;12.00;55.95
50852;BME280;43953;45.508;-122.806;2023-04-19T01:23:53;100701.69;;;11.97;55.74
50852;BME280;43953;45.508;-122.806;2023-04-19T01:24:25;100700.50;;;11.93;55.63
50852;BME280;43953;45.508;-122.806;2023-04-19T01:24:57;100710.47;;;11.92;55.85
50852;BME280;43953;45.508;-122.806;2023-04-19T01:25:29;100707.97;;;11.91;55.85
50852;BME280;43953;45.508;-122.806;2023-04-19T01:26:01;100709.84;;;11.90;56.01
50852;BME280;43953;45.508;-122.806;2023-04-19T01:26:33;100714.19;;;11.91;56.10
50852;BME280;43953;45.508;-122.806;2023-04-19T01:27:04;100714.19;;;11.91;56.18
50852;BME280;43953;45.508;-122.806;2023-04-19T01:27:37;100717.72;;;11.92;56.32
50852;BME280;43953;45.508;-122.806;2023-04-19T01:28:08;100718.31;;;11.94;56.25
50852;BME280;43953;45.508;-122.806;2023-04-19T01:28:40;100716.69;;;11.93;56.48
50852;BME280;43953;45.508;-122.806;2023-04-19T01:29:12;100724.53;;;11.94;57.12
50852;BME280;43953;45.508;-122.806;2023-04-19T01:29:44;100730.31;;;11.98;56.83
50852;BME280;43953;45.508;-122.806;2023-04-19T01:30:16;100721.81;;;12.01;56.77
50852;BME280;43953;45.508;-122.806;2023-04-19T01:30:47;100718.91;;;12.02;56.27
50852;BME280;43953;45.508;-122.806;2023-04-19T01:31:24;100723.84;;;12.05;56.03
50852;BME280;43953;45.508;-122.806;2023-04-19T01:31:55;100731.75;;;12.07;56.21
50852;BME280;43953;45.508;-122.806;2023-04-19T01:32:27;100733.81;;;12.05;55.71
50852;BME280;43953;45.508;-122.806;2023-04-19T01:32:59;100723.03;;;12.05;55.61
50852;BME280;43953;45.508;-122.806;2023-04-19T01:33:30;100730.31;;;12.04;56.00
50852;BME280;43953;45.508;-122.806;2023-04-19T01:34:02;100727.81;;;12.03;56.21
50852;BME280;43953;45.508;-122.806;2023-04-19T01:34:34;100729.91;;;12.01;56.45
50852;BME280;43953;45.508;-122.806;2023-04-19T01:35:06;100734.47;;;12.00;56.21
50852;BME280;43953;45.508;-122.806;2023-04-19T01:35:38;100727.44;;;11.99;56.55
50852;BME280;43953;45.508;-122.806;2023-04-19T01:36:09;100732.19;;;11.97;56.38
50852;BME280;43953;45.508;-122.806;2023-04-19T01:36:41;100733.69;;;11.93;56.74
50852;BME280;43953;45.508;-122.806;2023-04-19T01:37:13;100733.91;;;11.92;56.46
50852;BME280;43953;45.508;-122.806;2023-04-19T01:37:45;100728.94;;;11.89;57.00
50852;BME280;43953;45.508;-122.806;2023-04-19T01:38:17;100729.78;;;11.82;56.75
50852;BME280;43953;45.508;-122.806;2023-04-19T01:38:49;100738.16;;;11.74;56.96
50852;BME280;43953;45.508;-122.806;2023-04-19T01:39:20;100727.16;;;11.69;57.16
50852;BME280;43953;45.508;-122.806;2023-04-19T01:39:52;100732.59;;;11.63;57.03
50852;BME280;43953;45.508;-122.806;2023-04-19T01:40:24;100723.06;;;11.60;57.35
50852;BME280;43953;45.508;-122.806;2023-04-19T01:40:56;100729.50;;;11.59;57.84
50852;BME280;43953;45.508;-122.806;2023-04-19T01:41:28;100732.63;;;11.56;57.65
50852;BME280;43953;45.508;-122.806;2023-04-19T01:42:00;100732.44;;;11.51;57.61
50852;BME280;43953;45.508;-122.806;2023-04-19T01:42:31;100730.63;;;11.38;57.58
50852;BME280;43953;45.508;-122.806;2023-04-19T01:43:03;100723.78;;;11.35;58.08
50852;BME280;43953;45.508;-122.806;2023-04-19T01:43:35;100721.94;;;11.36;58.30
50852;BME280;43953;45.508;-122.806;2023-04-19T01:44:06;100722.75;;;11.36;58.41
50852;BME280;43953;45.508;-122.806;2023-04-19T01:44:38;100730.22;;;11.34;58.07
50852;BME280;43953;45.508;-122.806;2023-04-19T01:45:10;100730.22;;;11.34;58.23
50852;BME280;43953;45.508;-122.806;2023-04-19T01:45:42;100727.53;;;11.34;58.14
50852;BME280;43953;45.508;-122.806;2023-04-19T01:46:13;100724.84;;;11.34;58.30
50852;BME280;43953;45.508;-122.806;2023-04-19T01:46:45;100731.88;;;11.35;58.21
50852;BME280;43953;45.508;-122.806;2023-04-19T01:47:17;100733.56;;;11.36;58.58
50852;BME280;43953;45.508;-122.806;2023-04-19T01:47:49;100731.72;;;11.30;58.40
50852;BME280;43953;45.508;-122.806;2023-04-19T01:48:20;100730.03;;;11.29;58.50
50852;BME280;43953;45.508;-122.806;2023-04-19T01:48:52;100738.97;;;11.30;58.46
50852;BME280;43953;45.508;-122.806;2023-04-19T01:49:24;100731.09;;;11.28;58.59
50852;BME280;43953;45.508;-122.806;2023-04-19T01:49:56;100725.69;;;11.28;58.76
50852;BME280;43953;45.508;-122.806;2023-04-19T01:50:27;100736.47;;;11.28;58.46
50852;BME280;43953;45.508;-122.806;2023-04-19T01:50:59;100735.03;;;11.26;58.36
50852;BME280;43953;45.508;-122.806;2023-04-19T01:51:31;100733.38;;;11.25;58.68
50852;BME280;43953;45.508;-122.806;2023-04-19T01:52:02;100737.94;;;11.24;58.59
50852;BME280;43953;45.508;-122.806;2023-04-19T01:52:34;100736.06;;;11.25;58.55
50852;BME280;43953;45.508;-122.806;2023-04-19T01:53:06;100733.38;;;11.25;58.76
50852;BME280;43953;45.508;-122.806;2023-04-19T01:53:38;100733.97;;;11.27;58.57
50852;BME280;43953;45.508;-122.806;2023-04-19T01:54:09;100728.19;;;11.30;58.35
50852;BME280;43953;45.508;-122.806;2023-04-19T01:54:41;100730.03;;;11.29;58.70
50852;BME280;43953;45.508;-122.806;2023-04-19T01:55:13;100736.28;;;11.30;58.68
50852;BME280;43953;45.508;-122.806;2023-04-19T01:55:45;100734.41;;;11.30;58.45
50852;BME280;43953;45.508;-122.806;2023-04-19T01:56:17;100731.72;;;11.30;58.67
50852;BME280;43953;45.508;-122.806;2023-04-19T01:56:48;100733.97;;;11.27;58.23
50852;BME280;43953;45.508;-122.806;2023-04-19T01:57:20;100730.06;;;11.23;58.34
50852;BME280;43953;45.508;-122.806;2023-04-19T01:57:52;100730.28;;;11.21;58.48
50852;BME280;43953;45.508;-122.806;2023-04-19T01:58:24;100729.66;;;11.19;58.59
50852;BME280;43953;45.508;-122.806;2023-04-19T01:58:56;100725.09;;;11.20;58.76
50852;BME280;43953;45.508;-122.806;2023-04-19T01:59:28;100729.03;;;11.17;58.66
50852;BME280;43953;45.508;-122.806;2023-04-19T02:00:00;100732.78;;;11.16;59.12
50852;BME280;43953;45.508;-122.806;2023-04-19T02:00:32;100722.84;;;11.16;58.61
50852;BME280;43953;45.508;-122.806;2023-04-19T02:01:04;100729.03;;;11.17;59.17
50852;BME280;43953;45.508;-122.806;2023-04-19T02:01:36;100733.41;;;11.18;58.77
50852;BME280;43953;45.508;-122.806;2023-04-19T02:02:08;100727.78;;;11.20;58.94
50852;BME280;43953;45.508;-122.806;2023-04-19T02:02:40;100727.59;;;11.21;58.86
50852;BME280;43953;45.508;-122.806;2023-04-19T02:03:12;100722.81;;;11.23;58.95
50852;BME280;43953;45.508;-122.806;2023-04-19T02:03:44;100729.00;;;11.24;58.82
50852;BME280;43953;45.508;-122.806;2023-04-19T02:04:20;100725.88;;;11.27;58.78
50852;BME280;43953;45.508;-122.806;2023-04-19T02:04:54;100713.84;;;11.29;58.87
50852;BME280;43953;45.508;-122.806;2023-04-19T02:05:27;100718.22;;;11.30;58.87
50852;BME280;43953;45.508;-122.806;2023-04-19T02:05:59;100727.97;;;11.31;59.06
50852;BME280;43953;45.508;-122.806;2023-04-19T02:06:30;100727.34;;;11.29;58.96
50852;BME280;43953;45.508;-122.806;2023-04-19T02:07:02;100728.38;;;11.28;58.74
50852;BME280;43953;45.508;-122.806;2023-04-19T02:07:34;100736.47;;;11.28;58.94
50852;BME280;43953;45.508;-122.806;2023-04-19T02:08:06;100737.53;;;11.27;58.92
50852;BME280;43953;45.508;-122.806;2023-04-19T02:08:39;100733.16;;;11.26;59.33
50852;BME280;43953;45.508;-122.806;2023-04-19T02:09:10;100735.03;;;11.26;59.23
50852;BME280;43953;45.508;-122.806;2023-04-19T02:09:42;100736.91;;;11.25;59.36
50852;BME280;43953;45.508;-122.806;2023-04-19T02:10:14;100743.75;;;11.28;58.95
50852;BME280;43953;45.508;-122.806;2023-04-19T02:10:46;100736.47;;;11.28;59.22
50852;BME280;43953;45.508;-122.806;2023-04-19T02:11:17;100744.38;;;11.30;59.33
50852;BME280;43953;45.508;-122.806;2023-04-19T02:11:49;100736.47;;;11.28;59.71
50852;BME280;43953;45.508;-122.806;2023-04-19T02:12:21;100735.44;;;11.29;59.53
50852;BME280;43953;45.508;-122.806;2023-04-19T02:12:53;100741.66;;;11.30;59.50
50852;BME280;43953;45.508;-122.806;2023-04-19T02:13:25;100740.00;;;11.29;59.86
50852;BME280;43953;45.508;-122.806;2023-04-19T02:13:57;100750.56;;;11.30;59.65
50852;BME280;43953;45.508;-122.806;2023-04-19T02:14:28;100751.41;;;11.31;59.78
50852;BME280;43953;45.508;-122.806;2023-04-19T02:15:00;100750.16;;;11.33;59.83
50852;BME280;43953;45.508;-122.806;2023-04-19T02:15:32;100742.66;;;11.35;59.80
50852;BME280;43953;45.508;-122.806;2023-04-19T02:16:04;100760.50;;;11.36;60.09
50852;BME280;43953;45.508;-122.806;2023-04-19T02:16:37;100757.19;;;11.34;59.79
50852;BME280;43953;45.508;-122.806;2023-04-19T02:17:08;100758.03;;;11.28;59.04
50852;BME280;43953;45.508;-122.806;2023-04-19T02:17:40;100758.47;;;11.25;59.57
50852;BME280;43953;45.508;-122.806;2023-04-19T02:18:12;100759.50;;;11.24;59.51
50852;BME280;43953;45.508;-122.806;2023-04-19T02:18:44;100753.91;;;11.26;59.46
50852;BME280;43953;45.508;-122.806;2023-04-19T02:19:16;100760.09;;;11.26;59.53
50852;BME280;43953;45.508;-122.806;2023-04-19T02:19:48;100755.34;;;11.28;59.31
50852;BME280;43953;45.508;-122.806;2023-04-19T02:20:20;100758.84;;;11.29;59.23
50852;BME280;43953;45.508;-122.806;2023-04-19T02:20:52;100759.09;;;11.27;58.95
50852;BME280;43953;45.508;-122.806;2023-04-19T02:21:23;100760.53;;;11.23;58.71
50852;BME280;43953;45.508;-122.806;2023-04-19T02:21:56;100763.88;;;11.19;58.97
50852;BME280;43953;45.508;-122.806;2023-04-19T02:22:28;100757.25;;;11.14;59.38
50852;BME280;43953;45.508;-122.806;2023-04-19T02:22:59;100757.91;;;11.10;59.38
50852;BME280;43953;45.508;-122.806;2023-04-19T02:23:31;100760.19;;;11.00;59.54
50852;BME280;43953;45.508;-122.806;2023-04-19T02:24:03;100761.44;;;10.90;59.56
50852;BME280;43953;45.508;-122.806;2023-04-19T02:24:35;100764.16;;;10.84;59.53
50852;BME280;43953;45.508;-122.806;2023-04-19T02:25:07;100761.06;;;10.80;60.08
50852;BME280;43953;45.508;-122.806;2023-04-19T02:25:39;100762.50;;;10.76;60.25
50852;BME280;43953;45.508;-122.806;2023-04-19T02:26:10;100756.50;;;10.74;59.90
50852;BME280;43953;45.508;-122.806;2023-04-19T02:26:43;100756.69;;;10.73;60.06
50852;BME280;43953;45.508;-122.806;2023-04-19T02:27:15;100768.53;;;10.72;60.02
50852;BME280;43953;45.508;-122.806;2023-04-19T02:27:47;100763.56;;;10.68;60.07
50852;BME280;43953;45.508;-122.806;2023-04-19T02:28:18;100761.88;;;10.61;59.81
50852;BME280;43953;45.508;-122.806;2023-04-19T02:28:51;100766.44;;;10.60;60.16
50852;BME280;43953;45.508;-122.806;2023-04-19T02:29:23;100761.06;;;10.60;60.01
50852;BME280;43953;45.508;-122.806;2023-04-19T02:29:55;100762.94;;;10.60;60.32
50852;BME280;43953;45.508;-122.806;2023-04-19T02:30:26;100756.50;;;10.61;60.21
50852;BME280;43953;45.508;-122.806;2023-04-19T02:31:02;100756.50;;;10.61;60.33
50852;BME280;43953;45.508;-122.806;2023-04-19T02:31:35;100756.91;;;10.58;60.27
50852;BME280;43953;45.508;-122.806;2023-04-19T02:32:07;100750.09;;;10.55;60.47
50852;BME280;43953;45.508;-122.806;2023-04-19T02:32:39;100749.25;;;10.55;60.18
50852;BME280;43953;45.508;-122.806;2023-04-19T02:33:10;100746.56;;;10.55;60.11
50852;BME280;43953;45.508;-122.806;2023-04-19T02:33:43;100751.13;;;10.54;60.65
50852;BME280;43953;45.508;-122.806;2023-04-19T02:34:16;100751.75;;;10.50;60.28
50852;BME280;43953;45.508;-122.806;2023-04-19T02:34:48;100754.84;;;10.46;60.40
50852;BME280;43953;45.508;-122.806;2023-04-19T02:35:20;100763.56;;;10.48;60.33
50852;BME280;43953;45.508;-122.806;2023-04-19T02:35:52;100754.44;;;10.50;60.44
50852;BME280;43953;45.508;-122.806;2023-04-19T02:36:24;100755.69;;;10.54;60.65
50852;BME280;43953;45.508;-122.806;2023-04-19T02:36:56;100758.97;;;10.56;60.59
50852;BME280;43953;45.508;-122.806;2023-04-19T02:37:28;100754.22;;;10.58;60.45
50852;BME280;43953;45.508;-122.806;2023-04-19T02:38:02;100762.94;;;10.60;60.50
50852;BME280;43953;45.508;-122.806;2023-04-19T02:38:34;100760.88;;;10.62;60.38
50852;BME280;43953;45.508;-122.806;2023-04-19T02:39:05;100754.22;;;10.64;60.39
50852;BME280;43953;45.508;-122.806;2023-04-19T02:39:37;100757.34;;;10.68;60.38
50852;BME280;43953;45.508;-122.806;2023-04-19T02:40:09;100749.28;;;10.68;60.39
50852;BME280;43953;45.508;-122.806;2023-04-19T02:40:41;100747.81;;;10.65;60.65
50852;BME280;43953;45.508;-122.806;2023-04-19T02:41:12;100755.06;;;10.65;60.18
50852;BME280;43953;45.508;-122.806;2023-04-19T02:41:44;100755.69;;;10.60;60.32